Time;durP1;ratioP1;P1;durP2;ratioP2;P2;SDS_P1;SDS_P2;PMS_P1;PMS_P2;Temp;Humidity;BMP_temperature;BMP_pressure;BME280_temperature;BME280_humidity;BME280_pressure;Samples;Min_cycle;Max_cycle;Signal;HPM_P1;HPM_P2
2023/09/30 00:02:19;;;;;;;5.23;3.00;;;;;;;17.42;90.82;155837.56;4906788;29;20584;-84
2023/09/30 00:04:46;;;;;;;3.27;2.53;;;;;;;17.42;90.76;155837.56;4916893;29;20471;-84
2023/09/30 00:07:12;;;;;;;4.20;2.70;;;;;;;17.39;90.81;155829.75;4934065;29;20467;-84
2023/09/30 00:09:40;;;;;;;6.03;3.17;;;;;;;17.36;91.14;155821.94;4932665;29;20488;-84
2023/09/30 00:12:08;;;;;;;4.80;2.57;;;;;;;17.34;91.25;155816.72;4912879;29;20444;-84
2023/09/30 00:14:35;;;;;;;3.77;2.97;;;;;;;17.32;91.44;155811.50;4935469;29;20529;-84
2023/09/30 00:17:02;;;;;;;5.50;2.80;;;;;;;17.31;91.88;155808.91;4929839;29;20503;-84
2023/09/30 00:19:32;;;;;;;3.20;2.40;;;;;;;17.29;91.73;155805.00;4909858;29;20484;-84
2023/09/30 00:21:58;;;;;;;3.87;2.73;;;;;;;17.27;91.89;155798.47;4899359;29;20459;-84
2023/09/30 00:24:25;;;;;;;4.60;2.67;;;;;;;17.25;92.24;155793.28;4881178;29;20456;-84
2023/09/30 00:26:53;;;;;;;4.80;3.30;;;;;;;17.23;92.18;155789.41;4905434;29;20456;-84
2023/09/30 00:29:20;;;;;;;3.37;2.33;;;;;;;17.21;92.27;155782.91;4899311;29;20531;-84
2023/09/30 00:31:47;;;;;;;6.90;2.93;;;;;;;17.16;92.71;155769.84;4933078;29;20451;-84
2023/09/30 00:34:14;;;;;;;6.57;3.37;;;;;;;17.15;93.04;155767.28;4914736;29;20468;-84
2023/09/30 00:36:40;;;;;;;3.23;2.53;;;;;;;17.09;93.35;155752.94;4908328;29;20459;-84
2023/09/30 00:39:09;;;;;;;3.43;2.40;;;;;;;17.06;93.62;155745.13;4906952;29;20994;-84
2023/09/30 00:41:35;;;;;;;3.60;2.40;;;;;;;17.00;93.72;155730.81;4921103;29;20445;-84
2023/09/30 00:44:04;;;;;;;3.90;2.80;;;;;;;16.97;94.19;155723.00;4910465;29;20891;-84
2023/09/30 00:46:32;;;;;;;4.63;2.83;;;;;;;16.96;94.33;155720.44;4906455;29;20453;-84
2023/09/30 00:49:00;;;;;;;4.80;2.63;;;;;;;16.95;94.70;155717.81;4926955;29;20574;-84
2023/09/30 00:51:28;;;;;;;4.97;2.60;;;;;;;16.93;94.93;155712.63;4896364;29;20437;-84
2023/09/30 00:53:58;;;;;;;4.70;2.57;;;;;;;16.93;95.30;155712.63;4909705;29;20504;-84
2023/09/30 00:56:27;;;;;;;3.90;2.60;;;;;;;16.93;95.51;155712.63;4913250;29;20464;-84
2023/09/30 00:58:53;;;;;;;4.50;2.40;;;;;;;16.92;95.48;155710.00;4925985;29;20860;-84
2023/09/30 01:01:21;;;;;;;6.33;3.17;;;;;;;16.93;95.84;155711.31;4924066;29;20495;-84
2023/09/30 01:03:49;;;;;;;5.87;3.07;;;;;;;16.94;96.21;155715.19;4934868;29;20464;-84
2023/09/30 01:06:15;;;;;;;4.47;2.63;;;;;;;16.93;96.75;155712.63;4923985;29;20880;-84
2023/09/30 01:08:42;;;;;;;2.90;2.47;;;;;;;16.91;97.28;155707.44;4909910;29;20961;-84
2023/09/30 01:11:09;;;;;;;3.43;2.67;;;;;;;16.90;97.84;155704.81;4921686;29;20480;-84
2023/09/30 01:13:38;;;;;;;3.80;3.17;;;;;;;16.90;98.25;155704.81;4931709;29;20456;-84
2023/09/30 01:16:05;;;;;;;3.13;2.23;;;;;;;16.89;98.49;155700.94;4923704;29;20467;-84
2023/09/30 01:18:33;;;;;;;5.53;2.67;;;;;;;16.87;99.25;155697.00;4893678;29;20588;-84
2023/09/30 01:21:03;;;;;;;4.73;2.90;;;;;;;16.85;99.51;155691.81;4934699;29;20448;-84
2023/09/30 01:23:31;;;;;;;3.00;2.50;;;;;;;16.84;99.70;155689.19;4913943;29;20491;-84
2023/09/30 01:25:59;;;;;;;4.30;2.67;;;;;;;16.81;99.65;155681.38;4914146;29;20566;-84
2023/09/30 01:28:26;;;;;;;3.20;2.80;;;;;;;16.80;99.36;155677.47;4914240;29;21038;-84
2023/09/30 01:30:53;;;;;;;4.20;3.00;;;;;;;16.79;99.27;155676.19;4923917;29;20849;-84
2023/09/30 01:33:19;;;;;;;4.13;2.97;;;;;;;16.78;99.57;155672.28;4914123;29;20819;-84
2023/09/30 01:35:46;;;;;;;5.47;3.13;;;;;;;16.77;99.00;155669.66;4938453;29;20812;-84
2023/09/30 01:38:13;;;;;;;3.10;2.53;;;;;;;16.76;99.29;155668.38;4925234;29;20460;-84
2023/09/30 01:40:42;;;;;;;5.13;3.30;;;;;;;16.75;99.13;155665.78;4909340;29;20442;-84
2023/09/30 01:43:08;;;;;;;3.63;2.53;;;;;;;16.73;98.87;155660.53;4896858;29;20454;-84
2023/09/30 01:45:35;;;;;;;4.93;3.03;;;;;;;16.73;98.88;155660.53;4893835;29;20452;-84
2023/09/30 01:48:02;;;;;;;4.90;3.47;;;;;;;16.72;98.67;155656.66;4907910;29;20460;-84
2023/09/30 01:50:28;;;;;;;4.20;2.97;;;;;;;16.72;98.54;155657.97;4926875;29;20839;-84
2023/09/30 01:52:55;;;;;;;4.03;2.90;;;;;;;16.69;99.06;155650.16;4909188;29;20980;-84
2023/09/30 01:55:22;;;;;;;3.00;2.50;;;;;;;16.69;99.24;155650.16;4896691;29;20464;-84
2023/09/30 01:57:50;;;;;;;3.53;2.50;;;;;;;16.70;99.12;155652.78;4912164;29;20512;-84
2023/09/30 02:00:17;;;;;;;3.13;2.10;;;;;;;16.69;99.65;155650.16;4897660;29;20808;-84
2023/09/30 02:02:44;;;;;;;3.17;2.50;;;;;;;16.69;99.89;155650.16;4912044;29;20492;-84
2023/09/30 02:05:10;;;;;;;3.90;2.40;;;;;;;16.68;100.00;155646.28;4895973;29;20456;-84
2023/09/30 02:07:38;;;;;;;3.90;3.00;;;;;;;16.66;99.94;155642.34;4938253;29;20445;-84
2023/09/30 02:10:05;;;;;;;5.40;3.47;;;;;;;16.64;100.00;155637.16;4913650;29;20471;-84
2023/09/30 02:12:33;;;;;;;4.60;2.50;;;;;;;16.60;99.73;155626.72;4932427;29;20440;-84
2023/09/30 02:15:00;;;;;;;3.80;3.10;;;;;;;16.57;100.00;155617.66;4912432;29;20460;-84
2023/09/30 02:17:27;;;;;;;3.63;2.47;;;;;;;16.50;100.00;155599.38;4914100;29;20559;-84
2023/09/30 02:19:54;;;;;;;4.13;2.87;;;;;;;16.47;100.00;155592.88;4913047;29;20464;-84
2023/09/30 02:22:21;;;;;;;2.83;2.50;;;;;;;16.43;100.00;155582.47;4910590;29;20983;-84
2023/09/30 02:24:48;;;;;;;4.43;2.87;;;;;;;16.38;100.00;155569.47;4896344;29;20487;-84
2023/09/30 02:27:15;;;;;;;5.10;3.27;;;;;;;16.31;100.00;155551.25;4930158;29;20523;-84
2023/09/30 02:29:41;;;;;;;2.73;2.37;;;;;;;16.28;100.00;155543.47;4930486;29;20482;-84
2023/09/30 02:32:09;;;;;;;5.00;3.40;;;;;;;16.27;100.00;155542.16;4906098;29;20452;-84
2023/09/30 02:34:36;;;;;;;5.73;3.27;;;;;;;16.25;100.00;155535.66;4929909;29;20459;-84
2023/09/30 02:37:02;;;;;;;3.80;2.67;;;;;;;16.19;100.00;155520.03;4912841;29;20448;-84
2023/09/30 02:39:29;;;;;;;4.87;3.20;;;;;;;16.18;100.00;155517.44;4899808;29;20453;-84
2023/09/30 02:41:56;;;;;;;6.30;3.10;;;;;;;16.14;100.00;155507.06;4905116;29;20460;-84
2023/09/30 02:44:23;;;;;;;6.20;3.90;;;;;;;16.09;100.00;155494.06;4912297;29;20955;-84
2023/09/30 02:46:48;;;;;;;3.13;2.83;;;;;;;16.09;100.00;155494.06;4910749;29;20445;-84
2023/09/30 02:49:16;;;;;;;4.20;3.00;;;;;;;16.04;100.00;155482.38;4923683;29;20991;-84
2023/09/30 02:51:44;;;;;;;3.53;2.87;;;;;;;16.01;100.00;155474.56;4924345;29;20289;-84
2023/09/30 02:54:15;;;;;;;5.33;4.13;;;;;;;16.01;100.00;155473.25;4918575;29;20480;-84
2023/09/30 02:56:42;;;;;;;4.93;3.50;;;;;;;16.03;100.00;155479.75;4887252;29;20425;-84
2023/09/30 02:59:11;;;;;;;3.80;3.00;;;;;;;16.09;100.00;155495.38;4923796;29;20470;-84
2023/09/30 03:01:37;;;;;;;5.17;3.53;;;;;;;16.11;100.00;155500.56;4929062;29;20522;-84
2023/09/30 03:04:06;;;;;;;4.20;3.10;;;;;;;16.14;100.00;155507.06;4908823;29;20475;-84
2023/09/30 03:06:36;;;;;;;3.87;3.50;;;;;;;16.18;100.00;155518.75;4938561;29;20483;-84
2023/09/30 03:09:04;;;;;;;4.90;3.80;;;;;;;16.16;100.00;155512.25;4924347;29;20884;-84
2023/09/30 03:11:31;;;;;;;4.63;3.30;;;;;;;16.11;100.00;155499.25;4910913;29;20963;-84
2023/09/30 03:13:57;;;;;;;5.57;3.40;;;;;;;16.09;100.00;155495.38;4915389;29;20472;-84
2023/09/30 03:16:25;;;;;;;4.77;3.53;;;;;;;16.09;100.00;155495.38;4911253;29;20452;-84
2023/09/30 03:18:51;;;;;;;6.40;3.73;;;;;;;16.07;100.00;155490.13;4905686;29;20464;-84
2023/09/30 03:21:18;;;;;;;4.40;3.57;;;;;;;16.11;100.00;155500.56;4930009;29;20443;-84
2023/09/30 03:23:46;;;;;;;8.20;3.60;;;;;;;16.13;100.00;155504.44;4907796;29;21047;-84
2023/09/30 03:26:13;;;;;;;4.73;3.53;;;;;;;16.12;100.00;155501.88;4903945;29;20452;-84
2023/09/30 03:28:40;;;;;;;5.70;2.90;;;;;;;16.11;100.00;155500.56;4926774;29;20457;-84
2023/09/30 03:31:07;;;;;;;5.57;4.03;;;;;;;16.12;100.00;155503.16;4915402;29;20447;-84
2023/09/30 03:33:34;;;;;;;5.37;3.97;;;;;;;16.09;100.00;155494.06;4925154;29;20456;-84
2023/09/30 03:36:00;;;;;;;5.03;3.07;;;;;;;16.09;100.00;155494.06;4930305;29;20456;-84
2023/09/30 03:38:27;;;;;;;5.00;3.60;;;;;;;16.05;100.00;155483.63;4934840;29;20452;-84
2023/09/30 03:40:56;;;;;;;5.83;3.90;;;;;;;16.01;100.00;155474.56;4921561;29;20432;-84
2023/09/30 03:43:24;;;;;;;4.13;3.67;;;;;;;15.98;100.00;155465.44;4911094;29;20785;-84
2023/09/30 03:45:51;;;;;;;8.03;4.10;;;;;;;15.98;100.00;155465.44;4905748;29;20503;-85
2023/09/30 03:48:18;;;;;;;5.73;3.10;;;;;;;15.96;100.00;155460.25;4921431;29;21033;-84
2023/09/30 03:50:45;;;;;;;5.10;3.13;;;;;;;15.95;100.00;155457.63;4928645;29;20476;-84
2023/09/30 03:53:11;;;;;;;6.00;3.70;;;;;;;15.91;100.00;155448.56;4915321;29;20514;-84
2023/09/30 03:55:38;;;;;;;4.37;3.00;;;;;;;15.93;100.00;155452.44;4907564;29;20552;-85
2023/09/30 03:58:06;;;;;;;4.33;3.57;;;;;;;15.94;100.00;155455.06;4915697;29;20447;-84
2023/09/30 04:00:32;;;;;;;5.33;3.43;;;;;;;15.94;100.00;155455.06;4929426;29;20455;-84
2023/09/30 04:02:59;;;;;;;4.60;3.90;;;;;;;15.91;100.00;155447.25;4908595;29;20824;-84
2023/09/30 04:05:28;;;;;;;5.50;3.60;;;;;;;15.83;100.00;155427.75;4922723;29;23228;-84
2023/09/30 04:07:55;;;;;;;3.47;3.17;;;;;;;15.80;100.00;155421.25;4899607;29;20452;-84
2023/09/30 04:10:23;;;;;;;5.63;3.67;;;;;;;15.79;100.00;155418.63;4911698;29;20484;-84
2023/09/30 04:12:49;;;;;;;5.30;3.50;;;;;;;15.79;100.00;155418.63;4888959;29;20864;-85
2023/09/30 04:15:18;;;;;;;5.70;3.63;;;;;;;15.80;100.00;155421.25;4932070;29;20440;-84
2023/09/30 04:17:44;;;;;;;4.93;3.40;;;;;;;15.79;100.00;155418.63;4932237;29;20593;-84
2023/09/30 04:20:15;;;;;;;8.03;4.00;;;;;;;15.80;100.00;155421.25;4916364;29;20463;-84
2023/09/30 04:22:46;;;;;;;6.90;4.23;;;;;;;15.77;100.00;155413.47;4924809;29;20457;-84
2023/09/30 04:25:13;;;;;;;4.50;3.60;;;;;;;15.76;100.00;155410.84;4896521;29;20429;-84
2023/09/30 04:27:39;;;;;;;5.10;3.77;;;;;;;15.77;100.00;155412.13;4931941;29;21002;-84
2023/09/30 04:30:10;;;;;;;4.57;3.30;;;;;;;15.77;100.00;155412.13;4890213;29;20487;-84
2023/09/30 04:32:38;;;;;;;7.37;3.67;;;;;;;15.79;100.00;155418.63;4928065;29;20475;-84
2023/09/30 04:35:06;;;;;;;5.13;3.30;;;;;;;15.84;100.00;155431.63;4907556;29;20544;-84
2023/09/30 04:37:32;;;;;;;4.83;3.30;;;;;;;15.83;100.00;155427.75;4916772;29;20885;-84
2023/09/30 04:39:59;;;;;;;5.53;3.40;;;;;;;15.79;100.00;155418.63;4902883;29;20491;-84
2023/09/30 04:42:26;;;;;;;3.73;2.90;;;;;;;15.82;100.00;155426.44;4932320;29;20450;-84
2023/09/30 04:44:52;;;;;;;4.47;3.00;;;;;;;15.83;100.00;155429.03;4925952;29;20464;-84
2023/09/30 04:47:19;;;;;;;6.30;3.90;;;;;;;15.81;100.00;155422.53;4915623;29;20479;-84
2023/09/30 04:49:47;;;;;;;5.23;3.43;;;;;;;15.80;100.00;155419.94;4926473;29;20560;-84
2023/09/30 04:52:14;;;;;;;5.87;3.60;;;;;;;15.77;100.00;155412.13;4903334;29;20439;-84
2023/09/30 04:54:40;;;;;;;4.47;3.63;;;;;;;15.73;100.00;155403.03;4932919;29;20562;-84
2023/09/30 04:57:07;;;;;;;4.60;3.00;;;;;;;15.75;100.00;155408.22;4920290;29;20470;-84
2023/09/30 04:59:34;;;;;;;5.93;3.73;;;;;;;15.76;100.00;155410.84;4927038;29;20471;-84
2023/09/30 05:02:00;;;;;;;5.63;4.50;;;;;;;15.76;100.00;155410.84;4932109;29;20566;-84
2023/09/30 05:04:27;;;;;;;6.40;3.77;;;;;;;15.76;100.00;155409.53;4919783;29;20463;-84
2023/09/30 05:06:55;;;;;;;4.20;3.80;;;;;;;15.75;100.00;155408.22;4936408;29;20448;-84
2023/09/30 05:09:21;;;;;;;7.53;4.00;;;;;;;15.77;100.00;155413.47;4932095;29;20993;-84
2023/09/30 05:11:48;;;;;;;6.23;4.80;;;;;;;15.76;100.00;155410.84;4901408;29;20469;-84
2023/09/30 05:14:16;;;;;;;4.90;3.47;;;;;;;15.78;100.00;155416.03;4937527;29;20457;-85
2023/09/30 05:16:43;;;;;;;5.20;4.00;;;;;;;15.76;100.00;155410.84;4934841;29;20952;-84
2023/09/30 05:19:10;;;;;;;6.97;3.93;;;;;;;15.75;100.00;155406.97;4904323;29;20459;-84
2023/09/30 05:21:36;;;;;;;10.90;3.73;;;;;;;15.75;100.00;155408.22;4937859;29;20921;-84
2023/09/30 05:24:06;;;;;;;4.70;4.00;;;;;;;15.76;100.00;155410.84;4937183;29;20828;-84
2023/09/30 05:26:33;;;;;;;4.17;3.50;;;;;;;15.76;100.00;155409.53;4908449;29;20819;-84
2023/09/30 05:29:00;;;;;;;5.77;4.80;;;;;;;15.71;100.00;155397.84;4918079;29;20872;-84
2023/09/30 05:31:26;;;;;;;6.40;3.83;;;;;;;15.69;100.00;155391.34;4919990;29;20522;-84
2023/09/30 05:33:53;;;;;;;5.87;3.90;;;;;;;15.64;100.00;155379.66;4938968;29;20483;-84
2023/09/30 05:36:20;;;;;;;4.70;4.00;;;;;;;15.64;100.00;155379.66;4930709;29;20827;-84
2023/09/30 05:38:47;;;;;;;6.57;4.07;;;;;;;15.63;100.00;155377.03;4907977;29;20851;-84
2023/09/30 05:41:16;;;;;;;4.67;3.77;;;;;;;15.64;100.00;155379.66;4937194;29;20487;-84
2023/09/30 05:43:43;;;;;;;7.70;4.00;;;;;;;15.67;100.00;155387.41;4933449;29;20455;-85
2023/09/30 05:46:10;;;;;;;7.20;4.37;;;;;;;15.74;100.00;155404.34;4914659;29;20865;-85
2023/09/30 05:48:38;;;;;;;8.27;3.60;;;;;;;15.77;100.00;155413.47;4920114;29;20551;-85
2023/09/30 05:51:05;;;;;;;5.53;3.67;;;;;;;15.79;100.00;155418.63;4922314;29;20643;-85
2023/09/30 05:53:33;;;;;;;5.00;3.83;;;;;;;15.84;100.00;155430.31;4916882;29;20508;-85
2023/09/30 05:55:59;;;;;;;4.90;3.90;;;;;;;15.86;100.00;155434.25;4914843;29;20471;-82
2023/09/30 05:58:27;;;;;;;4.83;3.73;;;;;;;15.86;100.00;155434.25;4917074;29;21264;-84
2023/09/30 06:00:54;;;;;;;5.70;4.27;;;;;;;15.84;100.00;155431.63;4934959;29;20474;-84
2023/09/30 06:03:21;;;;;;;5.23;4.17;;;;;;;15.85;100.00;155432.94;4906673;29;20467;-84
2023/09/30 06:05:48;;;;;;;5.80;3.43;;;;;;;15.87;100.00;155436.81;4919257;29;20518;-85
2023/09/30 06:08:15;;;;;;;4.50;3.80;;;;;;;15.89;100.00;155442.00;4923384;29;20459;-85
2023/09/30 06:10:43;;;;;;;5.30;3.83;;;;;;;15.91;100.00;155447.25;4919510;29;20934;-84
2023/09/30 06:13:10;;;;;;;5.03;3.80;;;;;;;15.91;100.00;155447.25;4933678;29;20586;-85
2023/09/30 06:15:41;;;;;;;6.00;4.43;;;;;;;15.93;100.00;155452.44;4914155;29;20453;-85
2023/09/30 06:18:09;;;;;;;8.17;3.57;;;;;;;15.92;100.00;155449.81;4925291;29;21098;-85
2023/09/30 06:20:36;;;;;;;5.40;4.13;;;;;;;15.90;100.00;155445.94;4913569;29;20452;-85
2023/09/30 06:23:03;;;;;;;5.17;4.40;;;;;;;15.89;100.00;155442.00;4937392;29;20470;-85
2023/09/30 06:25:30;;;;;;;4.90;3.60;;;;;;;15.91;100.00;155447.25;4924462;29;20460;-85
2023/09/30 06:27:57;;;;;;;5.23;3.80;;;;;;;15.92;100.00;155449.81;4924763;29;20991;-84
2023/09/30 06:30:29;;;;;;;7.10;3.50;;;;;;;15.93;100.00;155452.44;4930715;29;20840;-84
2023/09/30 06:32:57;;;;;;;6.83;4.43;;;;;;;15.92;100.00;155451.13;4903136;29;20456;-85
2023/09/30 06:35:23;;;;;;;5.17;4.00;;;;;;;15.93;100.00;155453.75;4903207;29;20459;-85
2023/09/30 06:37:50;;;;;;;4.50;3.43;;;;;;;15.95;100.00;155457.63;4936640;29;20844;-84
2023/09/30 06:40:18;;;;;;;5.00;3.70;;;;;;;15.99;100.00;155469.31;4919701;29;20539;-84
2023/09/30 06:42:45;;;;;;;6.10;3.83;;;;;;;16.01;100.00;155473.25;4919529;29;20451;-85
2023/09/30 06:45:12;;;;;;;5.10;3.40;;;;;;;16.01;100.00;155473.25;4934751;29;20486;-84
2023/09/30 06:47:41;;;;;;;7.17;4.23;;;;;;;16.02;100.00;155477.13;4936610;29;20447;-85
2023/09/30 06:50:12;;;;;;;6.50;4.00;;;;;;;16.02;100.00;155477.13;4928051;29;20479;-85
2023/09/30 06:52:39;;;;;;;7.10;4.10;;;;;;;16.08;100.00;155492.75;4916676;29;20865;-85
2023/09/30 06:55:07;;;;;;;4.43;3.67;;;;;;;16.12;100.00;155501.88;4917915;29;20546;-86
2023/09/30 06:57:35;;;;;;;5.57;4.50;;;;;;;16.15;100.00;155509.66;4916790;29;20459;-85
2023/09/30 07:00:04;;;;;;;4.90;4.20;;;;;;;16.18;100.00;155517.44;4917286;29;20457;-84
2023/09/30 07:02:30;;;;;;;5.13;4.03;;;;;;;16.20;100.00;155522.66;4903471;29;20594;-84
2023/09/30 07:04:57;;;;;;;6.47;4.60;;;;;;;16.21;100.00;155525.25;4917577;29;20467;-84
2023/09/30 07:07:25;;;;;;;6.40;4.70;;;;;;;16.25;100.00;155536.97;4888376;29;20551;-84
2023/09/30 07:09:51;;;;;;;6.73;4.17;;;;;;;16.33;100.00;155556.47;4928393;29;20486;-84
2023/09/30 07:12:18;;;;;;;6.13;4.40;;;;;;;16.48;100.00;155595.47;4934852;29;20448;-84
2023/09/30 07:14:45;;;;;;;6.43;4.43;;;;;;;16.67;100.00;155644.97;4917562;29;20482;-84
2023/09/30 07:17:11;;;;;;;8.30;4.70;;;;;;;16.76;100.00;155667.09;4934357;29;20554;-85
2023/09/30 07:19:38;;;;;;;7.13;4.20;;;;;;;16.74;99.01;155663.16;4929164;29;20944;-83
2023/09/30 07:22:04;;;;;;;6.07;4.87;;;;;;;16.78;99.11;155672.28;4936083;29;20463;-84
2023/09/30 07:24:32;;;;;;;5.97;4.80;;;;;;;16.91;98.06;155707.44;4936961;29;20460;-84
2023/09/30 07:26:59;;;;;;;6.33;5.60;;;;;;;17.07;98.02;155746.44;4916058;29;20958;-84
2023/09/30 07:29:26;;;;;;;6.43;4.33;;;;;;;17.19;97.68;155777.66;4912327;29;20482;-84
2023/09/30 07:31:53;;;;;;;5.67;4.30;;;;;;;17.19;95.58;155778.97;4934662;29;21054;-85
2023/09/30 07:34:19;;;;;;;10.07;3.90;;;;;;;17.10;95.54;155754.25;4919976;29;20463;-84
2023/09/30 07:36:47;;;;;;;6.10;4.30;;;;;;;17.04;96.13;155741.25;4916646;29;21131;-84
2023/09/30 07:39:13;;;;;;;5.23;4.23;;;;;;;16.98;96.82;155725.63;4918172;29;20566;-85
2023/09/30 07:41:41;;;;;;;6.57;4.07;;;;;;;16.95;96.82;155716.50;4930391;29;20516;-84
2023/09/30 07:44:09;;;;;;;6.97;4.20;;;;;;;16.96;97.33;155719.13;4918849;29;20475;-84
2023/09/30 07:46:36;;;;;;;5.43;3.73;;;;;;;16.94;97.03;155713.94;4932591;29;20547;-84
2023/09/30 07:49:03;;;;;;;4.70;4.03;;;;;;;16.98;97.70;155724.31;4934414;29;20546;-86
2023/09/30 07:51:29;;;;;;;5.10;4.00;;;;;;;17.04;96.60;155741.25;4911790;29;20480;-85
2023/09/30 07:53:56;;;;;;;7.83;5.00;;;;;;;17.06;96.64;155745.13;4919385;29;20492;-85
2023/09/30 07:56:23;;;;;;;8.23;5.60;;;;;;;17.12;96.07;155759.47;4931498;29;20470;-85
2023/09/30 07:58:51;;;;;;;5.63;4.70;;;;;;;17.13;96.17;155762.06;4942778;29;20460;-85
2023/09/30 08:01:18;;;;;;;8.63;4.20;;;;;;;17.12;96.61;155760.78;4927194;29;20474;-85
2023/09/30 08:03:45;;;;;;;5.30;4.80;;;;;;;17.15;96.82;155768.59;4915275;29;20460;-82
2023/09/30 08:06:11;;;;;;;7.43;4.60;;;;;;;17.15;96.08;155768.59;4930337;29;20483;-82
2023/09/30 08:08:38;;;;;;;5.57;4.40;;;;;;;17.10;95.90;155754.25;4898975;29;21024;-82
2023/09/30 08:11:05;;;;;;;6.90;4.77;;;;;;;17.03;96.00;155738.63;4904839;29;20609;-82
2023/09/30 08:13:32;;;;;;;6.17;4.13;;;;;;;17.03;96.01;155737.31;4914821;29;20466;-82
2023/09/30 08:16:00;;;;;;;6.10;4.87;;;;;;;17.04;96.18;155741.25;4905439;29;20780;-82
2023/09/30 08:18:27;;;;;;;6.37;5.13;;;;;;;17.10;96.18;155754.25;4915663;29;20467;-82
2023/09/30 08:20:53;;;;;;;6.73;5.00;;;;;;;17.18;95.46;155776.41;4936772;29;20991;-82
2023/09/30 08:23:21;;;;;;;5.00;4.30;;;;;;;17.27;95.85;155799.78;4938487;29;20468;-82
2023/09/30 08:25:47;;;;;;;6.37;5.27;;;;;;;17.40;95.69;155832.31;4939134;29;20879;-82
2023/09/30 08:28:14;;;;;;;7.17;4.50;;;;;;;17.52;95.31;155863.59;4933389;29;20466;-82
2023/09/30 08:30:40;;;;;;;6.00;4.67;;;;;;;17.62;95.12;155890.97;4919057;29;20841;-82
2023/09/30 08:33:08;;;;;;;10.60;4.70;;;;;;;17.68;93.60;155905.28;4920596;29;20463;-82
2023/09/30 08:35:36;;;;;;;6.13;4.97;;;;;;;17.86;93.04;155950.84;4904841;29;20460;-82
2023/09/30 08:38:03;;;;;;;7.13;4.90;;;;;;;17.97;91.89;155979.50;4905192;29;20806;-82
2023/09/30 08:40:30;;;;;;;6.50;5.10;;;;;;;18.01;90.64;155991.22;4906308;29;20460;-82
2023/09/30 08:42:57;;;;;;;7.33;5.43;;;;;;;17.97;90.35;155980.81;4919057;29;20920;-82
2023/09/30 08:45:24;;;;;;;6.90;5.33;;;;;;;18.01;89.66;155989.88;4912343;29;20460;-82
2023/09/30 08:47:51;;;;;;;7.70;5.53;;;;;;;17.98;89.91;155983.38;4921125;29;20586;-82
2023/09/30 08:50:19;;;;;;;7.03;4.80;;;;;;;18.08;90.33;156008.16;4918434;29;20453;-82
2023/09/30 08:52:46;;;;;;;6.20;5.10;;;;;;;18.19;90.86;156036.75;4917619;29;20472;-82
2023/09/30 08:55:13;;;;;;;6.37;4.90;;;;;;;18.25;89.09;156053.72;4927309;29;20888;-82
2023/09/30 08:57:41;;;;;;;6.97;5.60;;;;;;;18.23;87.67;156047.22;4906950;29;20982;-82
2023/09/30 09:00:11;;;;;;;6.23;5.60;;;;;;;18.16;87.57;156029.00;4887022;29;20463;-82
2023/09/30 09:02:38;;;;;;;7.00;4.90;;;;;;;18.10;88.06;156013.34;4904121;29;20574;-82
2023/09/30 09:05:05;;;;;;;6.00;5.23;;;;;;;18.04;88.36;155999.03;4933254;29;20471;-82
2023/09/30 09:07:34;;;;;;;6.40;5.20;;;;;;;18.01;88.10;155991.22;4918936;29;20464;-82
2023/09/30 09:10:05;;;;;;;6.77;4.53;;;;;;;17.94;88.34;155971.69;4903384;29;20524;-82
2023/09/30 09:12:33;;;;;;;7.80;5.33;;;;;;;17.90;87.28;155962.56;4912575;29;21001;-83
2023/09/30 09:15:00;;;;;;;6.33;5.03;;;;;;;17.90;87.74;155961.25;4904650;29;20463;-82
2023/09/30 09:17:41;;;;;;;5.37;4.73;;;;;;;17.89;88.27;155959.97;4903181;29;20771;-82
2023/09/30 09:20:09;;;;;;;7.80;4.97;;;;;;;17.92;88.85;155967.78;4918801;29;20452;-82
2023/09/30 09:22:41;;;;;;;6.27;5.07;;;;;;;17.96;88.74;155978.19;4909996;29;20478;-82
2023/09/30 09:25:08;;;;;;;6.73;5.63;;;;;;;18.00;88.48;155987.31;4920681;29;20540;-83
2023/09/30 09:27:35;;;;;;;5.37;4.10;;;;;;;17.99;87.87;155986.00;4904143;29;20811;-82
2023/09/30 09:30:15;;;;;;;5.17;4.33;;;;;;;18.11;88.03;156015.94;4918923;29;20456;-82
2023/09/30 09:32:53;;;;;;;6.53;4.90;;;;;;;18.14;87.63;156025.06;4899569;29;20837;-82
2023/09/30 09:35:21;;;;;;;6.73;5.33;;;;;;;18.20;87.55;156040.69;4920114;29;20490;-82
2023/09/30 09:37:57;;;;;;;6.23;4.83;;;;;;;18.31;87.62;156068.06;4914360;29;20466;-82
2023/09/30 09:40:24;;;;;;;7.63;5.40;;;;;;;18.45;86.16;156104.53;4916094;29;20819;-82
2023/09/30 09:42:53;;;;;;;6.17;5.00;;;;;;;18.53;85.03;156124.13;4908080;29;20545;-82
2023/09/30 09:45:22;;;;;;;7.87;5.03;;;;;;;18.49;85.34;156113.66;4934667;29;20462;-82
2023/09/30 09:47:49;;;;;;;8.00;6.30;;;;;;;18.51;85.15;156118.88;4917913;29;20460;-82
2023/09/30 09:50:16;;;;;;;7.30;5.97;;;;;;;18.50;84.19;156116.31;4917640;29;20460;-82
2023/09/30 09:52:43;;;;;;;6.90;5.10;;;;;;;18.45;83.50;156103.22;4920078;29;20559;-82
2023/09/30 09:55:12;;;;;;;7.30;4.73;;;;;;;18.38;84.49;156086.28;4917652;29;20549;-83
2023/09/30 09:57:39;;;;;;;4.93;3.97;;;;;;;18.44;84.85;156101.91;4934366;29;20450;-82
2023/09/30 10:00:13;;;;;;;6.03;4.73;;;;;;;18.59;84.25;156139.72;4928216;29;20464;-82
2023/09/30 10:02:40;;;;;;;4.80;4.30;;;;;;;18.71;84.19;156171.00;4908563;29;20567;-82
2023/09/30 10:05:08;;;;;;;5.37;4.50;;;;;;;18.76;83.64;156184.03;4916304;29;20491;-82
2023/09/30 10:07:36;;;;;;;5.67;4.47;;;;;;;18.76;83.37;156184.03;4918351;29;20451;-81
2023/09/30 10:10:08;;;;;;;6.67;5.53;;;;;;;18.80;83.31;156194.44;4907722;29;20462;-82
2023/09/30 10:12:39;;;;;;;8.00;4.60;;;;;;;18.82;84.21;156199.69;4917064;29;20479;-81
2023/09/30 10:15:40;;;;;;;9.00;5.43;;;;;;;18.84;82.23;156206.19;4916575;29;20798;-81
2023/09/30 10:18:09;;;;;;;7.67;6.17;;;;;;;18.79;83.12;156191.84;4909824;29;20464;-82
2023/09/30 10:20:37;;;;;;;5.77;4.80;;;;;;;18.71;83.57;156171.00;4936450;29;20455;-81
2023/09/30 10:23:25;;;;;;;6.63;5.17;;;;;;;18.78;85.15;156189.22;4906805;29;20919;-82
2023/09/30 10:25:57;;;;;;;5.40;4.53;;;;;;;18.84;85.01;156204.88;4916635;29;20463;-82
2023/09/30 10:28:41;;;;;;;11.30;10.20;;;;;;;18.93;84.35;156228.31;4925784;29;20479;-82
2023/09/30 10:31:12;;;;;;;6.40;4.80;;;;;;;19.02;82.13;156251.78;4904178;29;20571;-82
2023/09/30 10:34:12;;;;;;;5.40;4.43;;;;;;;19.08;80.05;156266.13;4913742;29;20463;-82
2023/09/30 10:36:40;;;;;;;6.53;4.60;;;;;;;19.03;79.04;156254.41;4902667;29;21070;-82
2023/09/30 10:39:13;;;;;;;5.57;4.17;;;;;;;19.01;80.73;156249.16;4936276;29;20463;-82
2023/09/30 10:42:01;;;;;;;7.67;4.87;;;;;;;19.03;78.79;156254.41;4915418;29;20449;-82
2023/09/30 10:44:36;;;;;;;5.23;4.40;;;;;;;19.00;78.75;156245.28;4907788;29;20468;-82
2023/09/30 10:47:42;;;;;;;5.93;4.50;;;;;;;18.88;79.08;156215.28;4903735;29;20464;-82
2023/09/30 10:50:42;;;;;;;5.47;4.67;;;;;;;18.91;78.63;156223.09;4891225;29;20468;-82
2023/09/30 10:53:09;;;;;;;6.47;4.80;;;;;;;18.85;78.47;156208.78;4918051;29;20476;-81
2023/09/30 10:55:36;;;;;;;5.30;4.40;;;;;;;18.83;78.91;156203.56;4925291;29;20967;-81
2023/09/30 10:58:03;;;;;;;5.67;4.13;;;;;;;18.85;78.72;156208.78;4916717;29;20452;-81
2023/09/30 11:00:31;;;;;;;6.60;4.83;;;;;;;18.91;77.36;156223.09;4915315;29;20451;-82
2023/09/30 11:02:58;;;;;;;8.57;4.97;;;;;;;18.94;76.20;156229.63;4927317;29;20826;-82
2023/09/30 11:05:24;;;;;;;9.13;4.80;;;;;;;19.04;76.51;156256.97;4919529;29;20924;-81
2023/09/30 11:07:51;;;;;;;7.63;4.43;;;;;;;19.11;76.76;156273.94;4917735;29;20464;-82
2023/09/30 11:10:19;;;;;;;5.97;4.03;;;;;;;19.15;75.18;156285.66;4915824;29;20511;-81
2023/09/30 11:12:56;;;;;;;5.10;4.00;;;;;;;19.08;75.49;156266.13;4910576;29;20482;-81
2023/09/30 11:15:23;;;;;;;4.67;3.80;;;;;;;19.08;75.89;156267.44;4934260;29;20459;-81
2023/09/30 11:17:51;;;;;;;9.23;5.07;;;;;;;19.16;75.25;156286.97;4917402;29;20896;-81
2023/09/30 11:20:18;;;;;;;6.53;4.70;;;;;;;19.26;74.95;156314.34;4917931;29;20490;-82
2023/09/30 11:22:45;;;;;;;6.33;4.83;;;;;;;19.29;74.69;156322.16;4901143;29;20455;-81
2023/09/30 11:25:17;;;;;;;7.83;4.90;;;;;;;19.23;74.17;156305.19;4913922;29;21051;-82
2023/09/30 11:27:44;;;;;;;5.67;4.60;;;;;;;19.25;74.62;156310.41;4934163;29;20459;-81